sensor_id;sensor_type;location;lat;lon;timestamp;P1;durP1;ratioP1;P2;durP2;ratioP2
37559;SDS011;23398;50.928;7.084;2023-07-20T00:02:19;2.58;;;2.10;;
37559;SDS011;23398;50.928;7.084;2023-07-20T00:04:45;5.13;;;1.98;;
37559;SDS011;23398;50.928;7.084;2023-07-20T00:07:11;3.25;;;1.92;;
37559;SDS011;23398;50.928;7.084;2023-07-20T00:09:36;3.10;;;1.98;;
37559;SDS011;23398;50.928;7.084;2023-07-20T00:12:02;3.80;;;1.80;;
37559;SDS011;23398;50.928;7.084;2023-07-20T00:14:27;2.47;;;1.73;;
37559;SDS011;23398;50.928;7.084;2023-07-20T00:16:54;2.75;;;1.80;;
37559;SDS011;23398;50.928;7.084;2023-07-20T00:19:24;5.07;;;2.20;;
37559;SDS011;23398;50.928;7.084;2023-07-20T00:21:51;2.70;;;1.77;;
37559;SDS011;23398;50.928;7.084;2023-07-20T00:24:17;2.80;;;1.83;;
37559;SDS011;23398;50.928;7.084;2023-07-20T00:26:43;2.83;;;1.80;;
37559;SDS011;23398;50.928;7.084;2023-07-20T00:29:09;2.22;;;1.63;;
37559;SDS011;23398;50.928;7.084;2023-07-20T00:31:34;2.75;;;1.88;;
37559;SDS011;23398;50.928;7.084;2023-07-20T00:34:02;3.45;;;1.83;;
37559;SDS011;23398;50.928;7.084;2023-07-20T00:36:31;3.58;;;2.00;;
37559;SDS011;23398;50.928;7.084;2023-07-20T00:38:57;3.70;;;2.10;;
37559;SDS011;23398;50.928;7.084;2023-07-20T00:41:22;2.40;;;1.80;;
37559;SDS011;23398;50.928;7.084;2023-07-20T00:43:48;3.75;;;1.88;;
37559;SDS011;23398;50.928;7.084;2023-07-20T00:46:13;3.38;;;1.80;;
37559;SDS011;23398;50.928;7.084;2023-07-20T00:48:40;3.15;;;1.80;;
37559;SDS011;23398;50.928;7.084;2023-07-20T00:51:07;2.58;;;2.00;;
37559;SDS011;23398;50.928;7.084;2023-07-20T00:53:33;2.80;;;1.88;;
37559;SDS011;23398;50.928;7.084;2023-07-20T00:55:59;2.75;;;1.90;;
37559;SDS011;23398;50.928;7.084;2023-07-20T00:58:24;2.70;;;1.70;;
37559;SDS011;23398;50.928;7.084;2023-07-20T01:00:50;4.47;;;1.67;;
37559;SDS011;23398;50.928;7.084;2023-07-20T01:03:16;3.53;;;2.03;;
37559;SDS011;23398;50.928;7.084;2023-07-20T01:05:46;2.55;;;2.13;;
37559;SDS011;23398;50.928;7.084;2023-07-20T01:08:32;2.53;;;1.80;;
37559;SDS011;23398;50.928;7.084;2023-07-20T01:11:10;2.25;;;1.90;;
37559;SDS011;23398;50.928;7.084;2023-07-20T01:13:42;3.70;;;1.90;;
37559;SDS011;23398;50.928;7.084;2023-07-20T01:16:09;3.90;;;1.95;;
37559;SDS011;23398;50.928;7.084;2023-07-20T01:18:34;2.72;;;1.70;;
37559;SDS011;23398;50.928;7.084;2023-07-20T01:21:03;2.88;;;1.92;;
37559;SDS011;23398;50.928;7.084;2023-07-20T01:27:09;2.05;;;1.80;;
37559;SDS011;23398;50.928;7.084;2023-07-20T01:32:40;2.35;;;1.90;;
37559;SDS011;23398;50.928;7.084;2023-07-20T01:35:07;4.15;;;2.03;;
37559;SDS011;23398;50.928;7.084;2023-07-20T01:37:39;2.83;;;1.95;;
37559;SDS011;23398;50.928;7.084;2023-07-20T01:40:06;2.20;;;1.70;;
37559;SDS011;23398;50.928;7.084;2023-07-20T01:42:32;4.43;;;1.90;;
37559;SDS011;23398;50.928;7.084;2023-07-20T01:44:58;2.80;;;2.10;;
37559;SDS011;23398;50.928;7.084;2023-07-20T01:47:24;2.38;;;1.90;;
37559;SDS011;23398;50.928;7.084;2023-07-20T01:49:49;2.53;;;1.80;;
37559;SDS011;23398;50.928;7.084;2023-07-20T01:52:14;2.00;;;1.63;;
37559;SDS011;23398;50.928;7.084;2023-07-20T01:54:40;2.50;;;1.88;;
37559;SDS011;23398;50.928;7.084;2023-07-20T01:57:06;2.40;;;1.98;;
37559;SDS011;23398;50.928;7.084;2023-07-20T01:59:31;2.00;;;1.65;;
37559;SDS011;23398;50.928;7.084;2023-07-20T02:01:57;1.92;;;1.70;;
37559;SDS011;23398;50.928;7.084;2023-07-20T02:04:22;2.40;;;1.60;;
37559;SDS011;23398;50.928;7.084;2023-07-20T02:06:48;2.33;;;1.60;;
37559;SDS011;23398;50.928;7.084;2023-07-20T02:09:13;3.72;;;1.80;;
37559;SDS011;23398;50.928;7.084;2023-07-20T02:11:39;2.72;;;1.75;;
37559;SDS011;23398;50.928;7.084;2023-07-20T02:14:04;3.03;;;1.70;;
37559;SDS011;23398;50.928;7.084;2023-07-20T02:16:30;2.47;;;1.70;;
37559;SDS011;23398;50.928;7.084;2023-07-20T02:18:56;2.30;;;1.70;;
37559;SDS011;23398;50.928;7.084;2023-07-20T02:21:22;2.53;;;1.83;;
37559;SDS011;23398;50.928;7.084;2023-07-20T02:23:48;3.13;;;1.77;;
37559;SDS011;23398;50.928;7.084;2023-07-20T02:26:13;2.60;;;1.70;;
37559;SDS011;23398;50.928;7.084;2023-07-20T02:28:39;4.03;;;1.83;;
37559;SDS011;23398;50.928;7.084;2023-07-20T02:31:06;2.15;;;1.70;;
37559;SDS011;23398;50.928;7.084;2023-07-20T02:33:32;2.65;;;2.05;;
37559;SDS011;23398;50.928;7.084;2023-07-20T02:35:57;2.72;;;1.90;;
37559;SDS011;23398;50.928;7.084;2023-07-20T02:38:23;2.25;;;1.92;;
37559;SDS011;23398;50.928;7.084;2023-07-20T02:40:49;2.63;;;1.75;;
37559;SDS011;23398;50.928;7.084;2023-07-20T02:43:15;4.00;;;2.03;;
37559;SDS011;23398;50.928;7.084;2023-07-20T02:45:41;4.88;;;2.15;;
37559;SDS011;23398;50.928;7.084;2023-07-20T02:48:07;3.25;;;2.00;;
37559;SDS011;23398;50.928;7.084;2023-07-20T02:50:33;2.72;;;1.95;;
37559;SDS011;23398;50.928;7.084;2023-07-20T02:53:00;3.60;;;2.00;;
37559;SDS011;23398;50.928;7.084;2023-07-20T02:55:25;3.17;;;1.80;;
37559;SDS011;23398;50.928;7.084;2023-07-20T02:57:51;3.00;;;2.00;;
37559;SDS011;23398;50.928;7.084;2023-07-20T03:00:16;3.55;;;2.05;;
37559;SDS011;23398;50.928;7.084;2023-07-20T03:02:44;3.78;;;2.00;;
37559;SDS011;23398;50.928;7.084;2023-07-20T03:05:14;2.70;;;2.10;;
37559;SDS011;23398;50.928;7.084;2023-07-20T03:07:40;2.97;;;2.38;;
37559;SDS011;23398;50.928;7.084;2023-07-20T03:10:08;3.20;;;2.30;;
37559;SDS011;23398;50.928;7.084;2023-07-20T03:12:34;2.88;;;2.20;;
37559;SDS011;23398;50.928;7.084;2023-07-20T03:15:00;3.03;;;1.98;;
37559;SDS011;23398;50.928;7.084;2023-07-20T03:17:26;2.50;;;2.13;;
37559;SDS011;23398;50.928;7.084;2023-07-20T03:19:52;3.47;;;2.20;;
37559;SDS011;23398;50.928;7.084;2023-07-20T03:22:17;3.75;;;2.38;;
37559;SDS011;23398;50.928;7.084;2023-07-20T03:24:43;4.03;;;2.35;;
37559;SDS011;23398;50.928;7.084;2023-07-20T03:27:08;3.17;;;1.95;;
37559;SDS011;23398;50.928;7.084;2023-07-20T03:29:34;2.83;;;2.05;;
37559;SDS011;23398;50.928;7.084;2023-07-20T03:32:00;3.97;;;2.20;;
37559;SDS011;23398;50.928;7.084;2023-07-20T03:34:25;2.95;;;2.28;;
37559;SDS011;23398;50.928;7.084;2023-07-20T03:36:51;2.72;;;2.08;;
37559;SDS011;23398;50.928;7.084;2023-07-20T03:39:16;3.40;;;2.00;;
37559;SDS011;23398;50.928;7.084;2023-07-20T03:41:42;3.58;;;2.13;;
37559;SDS011;23398;50.928;7.084;2023-07-20T03:44:08;4.55;;;2.30;;
37559;SDS011;23398;50.928;7.084;2023-07-20T03:46:33;2.90;;;2.13;;
37559;SDS011;23398;50.928;7.084;2023-07-20T03:48:59;3.10;;;2.15;;
37559;SDS011;23398;50.928;7.084;2023-07-20T03:51:25;2.30;;;1.95;;
37559;SDS011;23398;50.928;7.084;2023-07-20T03:53:51;2.92;;;2.10;;
37559;SDS011;23398;50.928;7.084;2023-07-20T03:56:17;2.67;;;1.83;;
37559;SDS011;23398;50.928;7.084;2023-07-20T03:58:42;3.35;;;2.10;;
37559;SDS011;23398;50.928;7.084;2023-07-20T04:01:08;2.25;;;1.75;;
37559;SDS011;23398;50.928;7.084;2023-07-20T04:03:34;5.15;;;2.13;;
37559;SDS011;23398;50.928;7.084;2023-07-20T04:06:01;3.60;;;1.92;;
37559;SDS011;23398;50.928;7.084;2023-07-20T04:08:26;5.57;;;2.05;;
37559;SDS011;23398;50.928;7.084;2023-07-20T04:10:52;3.72;;;2.20;;
37559;SDS011;23398;50.928;7.084;2023-07-20T04:13:18;4.22;;;2.42;;
37559;SDS011;23398;50.928;7.084;2023-07-20T04:15:44;5.32;;;2.33;;
37559;SDS011;23398;50.928;7.084;2023-07-20T04:18:10;4.55;;;2.00;;
37559;SDS011;23398;50.928;7.084;2023-07-20T04:20:35;3.20;;;2.00;;
37559;SDS011;23398;50.928;7.084;2023-07-20T04:23:01;4.50;;;2.13;;
37559;SDS011;23398;50.928;7.084;2023-07-20T04:25:26;4.05;;;2.25;;
37559;SDS011;23398;50.928;7.084;2023-07-20T04:27:52;3.38;;;2.22;;
37559;SDS011;23398;50.928;7.084;2023-07-20T04:30:18;5.13;;;2.05;;
37559;SDS011;23398;50.928;7.084;2023-07-20T04:32:48;3.78;;;2.13;;
37559;SDS011;23398;50.928;7.084;2023-07-20T04:35:17;3.63;;;2.00;;
37559;SDS011;23398;50.928;7.084;2023-07-20T04:38:03;4.20;;;2.10;;
37559;SDS011;23398;50.928;7.084;2023-07-20T04:40:29;3.95;;;2.28;;
37559;SDS011;23398;50.928;7.084;2023-07-20T04:42:54;2.80;;;1.88;;
37559;SDS011;23398;50.928;7.084;2023-07-20T04:45:20;3.22;;;2.00;;
37559;SDS011;23398;50.928;7.084;2023-07-20T04:47:48;3.75;;;2.15;;
37559;SDS011;23398;50.928;7.084;2023-07-20T04:50:15;3.30;;;2.10;;
37559;SDS011;23398;50.928;7.084;2023-07-20T04:52:40;3.22;;;2.28;;
37559;SDS011;23398;50.928;7.084;2023-07-20T04:55:06;4.50;;;2.65;;
37559;SDS011;23398;50.928;7.084;2023-07-20T04:57:32;3.53;;;2.67;;
37559;SDS011;23398;50.928;7.084;2023-07-20T04:59:57;5.00;;;2.85;;
37559;SDS011;23398;50.928;7.084;2023-07-20T05:02:23;3.60;;;2.35;;
37559;SDS011;23398;50.928;7.084;2023-07-20T05:04:48;4.03;;;2.25;;
37559;SDS011;23398;50.928;7.084;2023-07-20T05:07:14;5.60;;;2.28;;
37559;SDS011;23398;50.928;7.084;2023-07-20T05:09:40;3.13;;;2.42;;
37559;SDS011;23398;50.928;7.084;2023-07-20T05:12:05;5.72;;;2.80;;
37559;SDS011;23398;50.928;7.084;2023-07-20T05:14:35;7.45;;;2.78;;
37559;SDS011;23398;50.928;7.084;2023-07-20T05:17:01;4.50;;;2.63;;
37559;SDS011;23398;50.928;7.084;2023-07-20T05:19:26;4.32;;;2.58;;
37559;SDS011;23398;50.928;7.084;2023-07-20T05:21:52;3.63;;;2.50;;
37559;SDS011;23398;50.928;7.084;2023-07-20T05:24:17;3.40;;;2.58;;
37559;SDS011;23398;50.928;7.084;2023-07-20T05:26:43;3.90;;;2.83;;
37559;SDS011;23398;50.928;7.084;2023-07-20T05:29:09;3.25;;;2.45;;
37559;SDS011;23398;50.928;7.084;2023-07-20T05:31:34;4.20;;;2.60;;
37559;SDS011;23398;50.928;7.084;2023-07-20T05:34:00;4.65;;;2.75;;
37559;SDS011;23398;50.928;7.084;2023-07-20T05:36:25;4.88;;;2.58;;
37559;SDS011;23398;50.928;7.084;2023-07-20T05:38:51;4.43;;;2.42;;
37559;SDS011;23398;50.928;7.084;2023-07-20T05:41:17;4.13;;;2.53;;
37559;SDS011;23398;50.928;7.084;2023-07-20T05:43:43;3.45;;;3.10;;
37559;SDS011;23398;50.928;7.084;2023-07-20T05:46:08;5.38;;;3.20;;
37559;SDS011;23398;50.928;7.084;2023-07-20T05:48:34;5.25;;;2.90;;
37559;SDS011;23398;50.928;7.084;2023-07-20T05:51:01;4.28;;;3.10;;
37559;SDS011;23398;50.928;7.084;2023-07-20T05:53:26;3.53;;;2.63;;
37559;SDS011;23398;50.928;7.084;2023-07-20T05:55:54;3.85;;;2.90;;
37559;SDS011;23398;50.928;7.084;2023-07-20T05:58:20;3.08;;;2.70;;
37559;SDS011;23398;50.928;7.084;2023-07-20T06:00:49;4.85;;;2.58;;
37559;SDS011;23398;50.928;7.084;2023-07-20T06:03:15;4.63;;;3.17;;
37559;SDS011;23398;50.928;7.084;2023-07-20T06:05:46;4.60;;;2.75;;
37559;SDS011;23398;50.928;7.084;2023-07-20T06:08:12;4.80;;;3.33;;
37559;SDS011;23398;50.928;7.084;2023-07-20T06:10:37;4.65;;;3.10;;
37559;SDS011;23398;50.928;7.084;2023-07-20T06:13:03;4.22;;;3.10;;
37559;SDS011;23398;50.928;7.084;2023-07-20T06:15:32;4.38;;;3.20;;
37559;SDS011;23398;50.928;7.084;2023-07-20T06:18:01;4.75;;;3.40;;
37559;SDS011;23398;50.928;7.084;2023-07-20T06:20:28;5.10;;;3.60;;
37559;SDS011;23398;50.928;7.084;2023-07-20T06:22:54;5.50;;;3.58;;
37559;SDS011;23398;50.928;7.084;2023-07-20T06:25:19;5.18;;;3.60;;
37559;SDS011;23398;50.928;7.084;2023-07-20T06:27:46;5.82;;;3.83;;
37559;SDS011;23398;50.928;7.084;2023-07-20T06:30:11;7.30;;;3.60;;
37559;SDS011;23398;50.928;7.084;2023-07-20T06:32:37;5.00;;;3.33;;
37559;SDS011;23398;50.928;7.084;2023-07-20T06:35:04;4.95;;;3.47;;
37559;SDS011;23398;50.928;7.084;2023-07-20T06:37:30;4.97;;;3.55;;
37559;SDS011;23398;50.928;7.084;2023-07-20T06:39:55;7.43;;;3.83;;
37559;SDS011;23398;50.928;7.084;2023-07-20T06:42:21;4.75;;;4.28;;
37559;SDS011;23398;50.928;7.084;2023-07-20T06:44:46;4.53;;;3.30;;
37559;SDS011;23398;50.928;7.084;2023-07-20T06:47:12;4.28;;;3.03;;
37559;SDS011;23398;50.928;7.084;2023-07-20T06:49:38;4.55;;;3.08;;
37559;SDS011;23398;50.928;7.084;2023-07-20T06:52:03;3.67;;;3.38;;
37559;SDS011;23398;50.928;7.084;2023-07-20T06:54:29;3.97;;;3.20;;
37559;SDS011;23398;50.928;7.084;2023-07-20T06:56:55;4.13;;;3.28;;
37559;SDS011;23398;50.928;7.084;2023-07-20T06:59:20;3.97;;;2.95;;
37559;SDS011;23398;50.928;7.084;2023-07-20T07:01:46;3.90;;;3.20;;
37559;SDS011;23398;50.928;7.084;2023-07-20T07:04:12;3.00;;;2.70;;
37559;SDS011;23398;50.928;7.084;2023-07-20T07:06:37;3.83;;;2.75;;
37559;SDS011;23398;50.928;7.084;2023-07-20T07:09:03;4.78;;;3.33;;
37559;SDS011;23398;50.928;7.084;2023-07-20T07:11:28;4.55;;;3.08;;
37559;SDS011;23398;50.928;7.084;2023-07-20T07:13:54;3.90;;;3.05;;
37559;SDS011;23398;50.928;7.084;2023-07-20T07:16:19;3.60;;;2.60;;
37559;SDS011;23398;50.928;7.084;2023-07-20T07:18:45;4.18;;;2.60;;
37559;SDS011;23398;50.928;7.084;2023-07-20T07:21:11;3.90;;;3.03;;
37559;SDS011;23398;50.928;7.084;2023-07-20T07:23:37;3.70;;;2.78;;
37559;SDS011;23398;50.928;7.084;2023-07-20T07:26:04;3.90;;;3.05;;
37559;SDS011;23398;50.928;7.084;2023-07-20T07:28:29;5.40;;;2.65;;
37559;SDS011;23398;50.928;7.084;2023-07-20T07:30:55;4.72;;;2.78;;
37559;SDS011;23398;50.928;7.084;2023-07-20T07:33:22;4.35;;;2.85;;
37559;SDS011;23398;50.928;7.084;2023-07-20T07:35:48;3.65;;;2.90;;
37559;SDS011;23398;50.928;7.084;2023-07-20T07:38:14;2.88;;;2.65;;
37559;SDS011;23398;50.928;7.084;2023-07-20T07:40:40;4.03;;;2.50;;
37559;SDS011;23398;50.928;7.084;2023-07-20T07:43:05;3.28;;;2.85;;
37559;SDS011;23398;50.928;7.084;2023-07-20T07:45:34;2.65;;;2.42;;
37559;SDS011;23398;50.928;7.084;2023-07-20T07:48:01;3.72;;;2.45;;
37559;SDS011;23398;50.928;7.084;2023-07-20T07:50:27;3.45;;;2.42;;
37559;SDS011;23398;50.928;7.084;2023-07-20T07:52:53;3.10;;;2.40;;
37559;SDS011;23398;50.928;7.084;2023-07-20T07:55:19;2.90;;;2.50;;
37559;SDS011;23398;50.928;7.084;2023-07-20T07:57:44;2.78;;;2.10;;
37559;SDS011;23398;50.928;7.084;2023-07-20T08:00:12;3.67;;;2.42;;
37559;SDS011;23398;50.928;7.084;2023-07-20T08:02:40;5.13;;;2.45;;
37559;SDS011;23398;50.928;7.084;2023-07-20T08:05:09;2.75;;;2.22;;
37559;SDS011;23398;50.928;7.084;2023-07-20T08:07:35;3.63;;;2.47;;
37559;SDS011;23398;50.928;7.084;2023-07-20T08:10:01;2.35;;;2.03;;
37559;SDS011;23398;50.928;7.084;2023-07-20T08:12:26;5.75;;;2.28;;
37559;SDS011;23398;50.928;7.084;2023-07-20T08:14:52;3.03;;;2.10;;
37559;SDS011;23398;50.928;7.084;2023-07-20T08:17:18;3.00;;;2.22;;
37559;SDS011;23398;50.928;7.084;2023-07-20T08:19:45;2.63;;;1.90;;
37559;SDS011;23398;50.928;7.084;2023-07-20T08:22:11;3.28;;;2.30;;
37559;SDS011;23398;50.928;7.084;2023-07-20T08:24:39;2.65;;;1.92;;
37559;SDS011;23398;50.928;7.084;2023-07-20T08:27:05;3.50;;;1.90;;
37559;SDS011;23398;50.928;7.084;2023-07-20T08:29:31;2.33;;;1.70;;
37559;SDS011;23398;50.928;7.084;2023-07-20T08:31:56;1.98;;;1.60;;
37559;SDS011;23398;50.928;7.084;2023-07-20T08:34:22;1.75;;;1.63;;
37559;SDS011;23398;50.928;7.084;2023-07-20T08:36:47;2.88;;;1.77;;
37559;SDS011;23398;50.928;7.084;2023-07-20T08:39:12;2.67;;;1.95;;
37559;SDS011;23398;50.928;7.084;2023-07-20T08:41:38;1.70;;;1.60;;
37559;SDS011;23398;50.928;7.084;2023-07-20T08:44:04;2.17;;;1.45;;
37559;SDS011;23398;50.928;7.084;2023-07-20T08:46:31;2.70;;;1.40;;
37559;SDS011;23398;50.928;7.084;2023-07-20T08:48:59;1.98;;;1.42;;
37559;SDS011;23398;50.928;7.084;2023-07-20T08:51:27;1.75;;;1.30;;
37559;SDS011;23398;50.928;7.084;2023-07-20T08:53:54;3.58;;;1.48;;
37559;SDS011;23398;50.928;7.084;2023-07-20T08:56:19;1.42;;;1.20;;
37559;SDS011;23398;50.928;7.084;2023-07-20T08:58:46;1.58;;;1.20;;
37559;SDS011;23398;50.928;7.084;2023-07-20T09:01:12;2.38;;;1.40;;
37559;SDS011;23398;50.928;7.084;2023-07-20T09:03:39;1.77;;;1.35;;
37559;SDS011;23398;50.928;7.084;2023-07-20T09:06:05;1.60;;;1.23;;
37559;SDS011;23398;50.928;7.084;2023-07-20T09:08:31;2.03;;;1.40;;
37559;SDS011;23398;50.928;7.084;2023-07-20T09:10:57;1.73;;;1.25;;
37559;SDS011;23398;50.928;7.084;2023-07-20T09:13:24;1.85;;;1.58;;
37559;SDS011;23398;50.928;7.084;2023-07-20T09:15:53;1.98;;;1.40;;
37559;SDS011;23398;50.928;7.084;2023-07-20T09:18:27;1.35;;;1.25;;
37559;SDS011;23398;50.928;7.084;2023-07-20T09:20:57;1.50;;;1.10;;
37559;SDS011;23398;50.928;7.084;2023-07-20T09:23:30;1.10;;;1.00;;
37559;SDS011;23398;50.928;7.084;2023-07-20T09:25:57;1.38;;;1.27;;
37559;SDS011;23398;50.928;7.084;2023-07-20T09:28:23;1.45;;;1.20;;
37559;SDS011;23398;50.928;7.084;2023-07-20T09:30:49;1.73;;;1.27;;
37559;SDS011;23398;50.928;7.084;2023-07-20T09:33:23;3.83;;;1.20;;
37559;SDS011;23398;50.928;7.084;2023-07-20T09:35:49;1.40;;;1.30;;
37559;SDS011;23398;50.928;7.084;2023-07-20T09:38:15;1.40;;;1.10;;
37559;SDS011;23398;50.928;7.084;2023-07-20T09:40:41;1.48;;;1.20;;
37559;SDS011;23398;50.928;7.084;2023-07-20T09:43:10;1.77;;;1.30;;
37559;SDS011;23398;50.928;7.084;2023-07-20T09:45:39;1.20;;;1.10;;
37559;SDS011;23398;50.928;7.084;2023-07-20T09:48:09;1.40;;;1.30;;
37559;SDS011;23398;50.928;7.084;2023-07-20T09:50:40;1.20;;;1.10;;
37559;SDS011;23398;50.928;7.084;2023-07-20T09:53:07;1.70;;;1.10;;
37559;SDS011;23398;50.928;7.084;2023-07-20T09:55:37;1.40;;;1.30;;
37559;SDS011;23398;50.928;7.084;2023-07-20T09:58:04;2.58;;;1.20;;
37559;SDS011;23398;50.928;7.084;2023-07-20T10:00:32;1.80;;;1.17;;
37559;SDS011;23398;50.928;7.084;2023-07-20T10:02:59;1.25;;;1.00;;
37559;SDS011;23398;50.928;7.084;2023-07-20T10:05:29;2.13;;;1.30;;
37559;SDS011;23398;50.928;7.084;2023-07-20T10:07:59;1.10;;;1.00;;
37559;SDS011;23398;50.928;7.084;2023-07-20T10:10:26;1.67;;;1.02;;
37559;SDS011;23398;50.928;7.084;2023-07-20T10:12:52;1.10;;;1.00;;
37559;SDS011;23398;50.928;7.084;2023-07-20T10:15:24;1.20;;;0.93;;
37559;SDS011;23398;50.928;7.084;2023-07-20T10:18:02;1.85;;;1.00;;
37559;SDS011;23398;50.928;7.084;2023-07-20T10:20:33;1.70;;;1.00;;
37559;SDS011;23398;50.928;7.084;2023-07-20T10:23:04;0.77;;;0.77;;
37559;SDS011;23398;50.928;7.084;2023-07-20T10:25:31;1.23;;;1.10;;
37559;SDS011;23398;50.928;7.084;2023-07-20T10:27:57;1.85;;;1.00;;
37559;SDS011;23398;50.928;7.084;2023-07-20T10:30:23;2.10;;;1.30;;
37559;SDS011;23398;50.928;7.084;2023-07-20T10:32:50;2.78;;;1.20;;
37559;SDS011;23398;50.928;7.084;2023-07-20T10:35:17;2.50;;;1.00;;
37559;SDS011;23398;50.928;7.084;2023-07-20T10:37:46;1.25;;;1.08;;
37559;SDS011;23398;50.928;7.084;2023-07-20T10:40:33;1.30;;;1.13;;
37559;SDS011;23398;50.928;7.084;2023-07-20T10:43:04;1.00;;;0.95;;
37559;SDS011;23398;50.928;7.084;2023-07-20T10:45:41;2.67;;;1.23;;
37559;SDS011;23398;50.928;7.084;2023-07-20T10:48:13;1.75;;;1.00;;
37559;SDS011;23398;50.928;7.084;2023-07-20T10:50:40;0.93;;;0.90;;
37559;SDS011;23398;50.928;7.084;2023-07-20T10:53:09;1.52;;;1.02;;
37559;SDS011;23398;50.928;7.084;2023-07-20T10:55:42;1.00;;;0.90;;
37559;SDS011;23398;50.928;7.084;2023-07-20T10:58:10;1.00;;;0.90;;
37559;SDS011;23398;50.928;7.084;2023-07-20T11:00:54;1.27;;;1.00;;
37559;SDS011;23398;50.928;7.084;2023-07-20T11:03:28;1.10;;;1.00;;
37559;SDS011;23398;50.928;7.084;2023-07-20T11:09:04;1.13;;;1.00;;
37559;SDS011;23398;50.928;7.084;2023-07-20T11:11:32;1.00;;;0.90;;
37559;SDS011;23398;50.928;7.084;2023-07-20T11:14:00;1.30;;;1.00;;
37559;SDS011;23398;50.928;7.084;2023-07-20T11:16:46;1.05;;;0.95;;
37559;SDS011;23398;50.928;7.084;2023-07-20T11:19:20;1.30;;;1.20;;
37559;SDS011;23398;50.928;7.084;2023-07-20T11:21:50;1.73;;;1.00;;
37559;SDS011;23398;50.928;7.084;2023-07-20T11:24:17;2.30;;;1.95;;
37559;SDS011;23398;50.928;7.084;2023-07-20T11:26:47;1.33;;;1.10;;
37559;SDS011;23398;50.928;7.084;2023-07-20T11:29:15;1.45;;;1.00;;
37559;SDS011;23398;50.928;7.084;2023-07-20T11:31:43;0.90;;;0.90;;
37559;SDS011;23398;50.928;7.084;2023-07-20T11:34:13;1.20;;;0.98;;
37559;SDS011;23398;50.928;7.084;2023-07-20T11:36:40;1.40;;;1.10;;
37559;SDS011;23398;50.928;7.084;2023-07-20T11:39:10;1.88;;;0.85;;
37559;SDS011;23398;50.928;7.084;2023-07-20T11:41:37;1.08;;;0.98;;
37559;SDS011;23398;50.928;7.084;2023-07-20T11:44:03;1.27;;;1.10;;
37559;SDS011;23398;50.928;7.084;2023-07-20T11:46:31;1.25;;;1.00;;
37559;SDS011;23398;50.928;7.084;2023-07-20T11:48:59;1.10;;;1.00;;
37559;SDS011;23398;50.928;7.084;2023-07-20T11:51:29;1.13;;;0.82;;
37559;SDS011;23398;50.928;7.084;2023-07-20T11:53:56;1.05;;;0.95;;
37559;SDS011;23398;50.928;7.084;2023-07-20T11:56:25;1.00;;;0.90;;
37559;SDS011;23398;50.928;7.084;2023-07-20T11:58:54;0.98;;;0.90;;
37559;SDS011;23398;50.928;7.084;2023-07-20T12:01:21;1.50;;;0.80;;
37559;SDS011;23398;50.928;7.084;2023-07-20T12:03:48;1.23;;;0.90;;
37559;SDS011;23398;50.928;7.084;2023-07-20T12:06:14;0.82;;;0.80;;
37559;SDS011;23398;50.928;7.084;2023-07-20T12:08:43;5.40;;;0.95;;
37559;SDS011;23398;50.928;7.084;2023-07-20T12:11:09;1.08;;;0.90;;
37559;SDS011;23398;50.928;7.084;2023-07-20T12:13:42;1.60;;;0.90;;
37559;SDS011;23398;50.928;7.084;2023-07-20T12:16:15;0.90;;;0.90;;
37559;SDS011;23398;50.928;7.084;2023-07-20T12:18:42;1.13;;;0.90;;
37559;SDS011;23398;50.928;7.084;2023-07-20T12:21:08;1.38;;;1.00;;
37559;SDS011;23398;50.928;7.084;2023-07-20T12:23:35;1.00;;;0.90;;
37559;SDS011;23398;50.928;7.084;2023-07-20T12:26:06;0.95;;;0.73;;
37559;SDS011;23398;50.928;7.084;2023-07-20T12:28:38;1.00;;;0.90;;
37559;SDS011;23398;50.928;7.084;2023-07-20T12:31:05;1.02;;;0.75;;
37559;SDS011;23398;50.928;7.084;2023-07-20T12:33:32;3.00;;;0.90;;
37559;SDS011;23398;50.928;7.084;2023-07-20T12:35:57;0.98;;;0.90;;
37559;SDS011;23398;50.928;7.084;2023-07-20T12:38:24;2.65;;;1.00;;
37559;SDS011;23398;50.928;7.084;2023-07-20T12:40:50;1.00;;;0.95;;
37559;SDS011;23398;50.928;7.084;2023-07-20T12:43:16;2.60;;;1.20;;
37559;SDS011;23398;50.928;7.084;2023-07-20T12:45:42;1.55;;;1.00;;
37559;SDS011;23398;50.928;7.084;2023-07-20T12:48:09;1.10;;;0.80;;
37559;SDS011;23398;50.928;7.084;2023-07-20T12:50:34;0.88;;;0.80;;
37559;SDS011;23398;50.928;7.084;2023-07-20T12:53:00;0.80;;;0.80;;
37559;SDS011;23398;50.928;7.084;2023-07-20T12:55:28;0.93;;;0.82;;
37559;SDS011;23398;50.928;7.084;2023-07-20T12:57:54;1.27;;;0.88;;
37559;SDS011;23398;50.928;7.084;2023-07-20T13:00:20;0.90;;;0.70;;
37559;SDS011;23398;50.928;7.084;2023-07-20T13:02:47;1.13;;;0.90;;
37559;SDS011;23398;50.928;7.084;2023-07-20T13:05:13;1.02;;;0.80;;
37559;SDS011;23398;50.928;7.084;2023-07-20T13:07:40;0.80;;;0.80;;
37559;SDS011;23398;50.928;7.084;2023-07-20T13:10:06;1.55;;;0.98;;
37559;SDS011;23398;50.928;7.084;2023-07-20T13:12:33;1.17;;;0.80;;
37559;SDS011;23398;50.928;7.084;2023-07-20T13:15:00;1.23;;;1.00;;
37559;SDS011;23398;50.928;7.084;2023-07-20T13:17:31;1.48;;;0.90;;
37559;SDS011;23398;50.928;7.084;2023-07-20T13:19:57;1.55;;;0.90;;
37559;SDS011;23398;50.928;7.084;2023-07-20T13:22:22;1.10;;;1.00;;
37559;SDS011;23398;50.928;7.084;2023-07-20T13:24:52;1.10;;;1.00;;
37559;SDS011;23398;50.928;7.084;2023-07-20T13:27:18;1.88;;;0.80;;
37559;SDS011;23398;50.928;7.084;2023-07-20T13:29:44;0.70;;;0.70;;
37559;SDS011;23398;50.928;7.084;2023-07-20T13:32:14;1.13;;;0.98;;
37559;SDS011;23398;50.928;7.084;2023-07-20T13:34:40;0.82;;;0.80;;
37559;SDS011;23398;50.928;7.084;2023-07-20T13:37:06;2.10;;;0.88;;
37559;SDS011;23398;50.928;7.084;2023-07-20T13:39:31;3.05;;;1.17;;
37559;SDS011;23398;50.928;7.084;2023-07-20T13:41:57;1.60;;;0.98;;
37559;SDS011;23398;50.928;7.084;2023-07-20T13:44:23;1.88;;;1.05;;
37559;SDS011;23398;50.928;7.084;2023-07-20T13:46:48;1.45;;;0.95;;
37559;SDS011;23398;50.928;7.084;2023-07-20T13:49:14;1.38;;;0.90;;
37559;SDS011;23398;50.928;7.084;2023-07-20T13:51:43;2.35;;;1.00;;
37559;SDS011;23398;50.928;7.084;2023-07-20T13:54:10;1.90;;;0.98;;
37559;SDS011;23398;50.928;7.084;2023-07-20T13:56:36;0.90;;;0.90;;
37559;SDS011;23398;50.928;7.084;2023-07-20T13:59:02;1.05;;;0.93;;
37559;SDS011;23398;50.928;7.084;2023-07-20T14:01:28;1.25;;;1.10;;
37559;SDS011;23398;50.928;7.084;2023-07-20T14:03:55;1.15;;;1.00;;
37559;SDS011;23398;50.928;7.084;2023-07-20T14:06:21;1.35;;;0.95;;
37559;SDS011;23398;50.928;7.084;2023-07-20T14:08:47;1.10;;;0.90;;
37559;SDS011;23398;50.928;7.084;2023-07-20T14:11:13;0.88;;;0.82;;
37559;SDS011;23398;50.928;7.084;2023-07-20T14:13:39;1.35;;;0.80;;
37559;SDS011;23398;50.928;7.084;2023-07-20T14:16:05;0.90;;;0.90;;
37559;SDS011;23398;50.928;7.084;2023-07-20T14:18:31;0.93;;;0.88;;
37559;SDS011;23398;50.928;7.084;2023-07-20T14:20:57;1.00;;;0.90;;
37559;SDS011;23398;50.928;7.084;2023-07-20T14:23:22;2.20;;;1.15;;
37559;SDS011;23398;50.928;7.084;2023-07-20T14:25:48;1.13;;;1.02;;
37559;SDS011;23398;50.928;7.084;2023-07-20T14:28:14;1.50;;;0.95;;
37559;SDS011;23398;50.928;7.084;2023-07-20T14:30:39;2.05;;;0.90;;
37559;SDS011;23398;50.928;7.084;2023-07-20T14:33:06;1.65;;;1.00;;
37559;SDS011;23398;50.928;7.084;2023-07-20T14:35:31;1.35;;;0.90;;
37559;SDS011;23398;50.928;7.084;2023-07-20T14:37:57;1.10;;;1.00;;
37559;SDS011;23398;50.928;7.084;2023-07-20T14:40:22;1.10;;;1.00;;
37559;SDS011;23398;50.928;7.084;2023-07-20T14:42:48;1.00;;;0.90;;
37559;SDS011;23398;50.928;7.084;2023-07-20T14:45:13;0.93;;;0.85;;
37559;SDS011;23398;50.928;7.084;2023-07-20T14:47:39;1.20;;;1.08;;
37559;SDS011;23398;50.928;7.084;2023-07-20T14:50:05;2.40;;;0.90;;
37559;SDS011;23398;50.928;7.084;2023-07-20T14:52:31;1.33;;;1.02;;
37559;SDS011;23398;50.928;7.084;2023-07-20T14:54:57;2.75;;;1.00;;
37559;SDS011;23398;50.928;7.084;2023-07-20T14:57:22;2.17;;;1.00;;